createdAt,value
2019-02-26T00:00:47.023Z,2.30
2019-02-26T00:03:14.043Z,2.20
2019-02-26T00:05:42.478Z,2.20
2019-02-26T00:08:10.891Z,2.10
2019-02-26T00:10:39.323Z,2.10
2019-02-26T00:13:07.723Z,2.10
2019-02-26T00:15:38.040Z,2.10
2019-02-26T00:18:09.433Z,2.00
2019-02-26T00:20:37.415Z,2.00
2019-02-26T00:23:06.558Z,2.00
2019-02-26T00:25:35.157Z,1.90
2019-02-26T00:28:03.567Z,1.80
2019-02-26T00:30:33.412Z,1.70
2019-02-26T00:33:02.771Z,1.70
2019-02-26T00:35:32.262Z,1.70
2019-02-26T00:38:00.677Z,1.60
2019-02-26T00:40:29.106Z,1.50
2019-02-26T00:42:59.559Z,1.50
2019-02-26T00:45:29.483Z,1.50
2019-02-26T00:47:57.788Z,1.40
2019-02-26T00:50:27.977Z,1.40
2019-02-26T00:52:57.044Z,1.40
2019-02-26T00:55:29.388Z,1.30
2019-02-26T00:58:16.119Z,1.30
2019-02-26T01:00:44.542Z,1.20
2019-02-26T01:03:13.605Z,1.20
2019-02-26T01:05:43.648Z,1.20
2019-02-26T01:08:15.189Z,1.10
2019-02-26T01:10:43.682Z,1.10
2019-02-26T01:13:13.510Z,1.10
2019-02-26T01:15:41.924Z,1.00
2019-02-26T01:18:10.345Z,0.90
2019-02-26T01:20:38.760Z,0.90
2019-02-26T01:23:07.186Z,0.80
2019-02-26T01:25:38.230Z,0.80
2019-02-26T01:28:06.334Z,0.80
2019-02-26T01:30:36.252Z,0.90
2019-02-26T01:33:07.410Z,0.90
2019-02-26T01:35:37.745Z,0.90
2019-02-26T01:38:06.002Z,0.80
2019-02-26T01:40:34.424Z,0.80
2019-02-26T01:43:03.885Z,0.70
2019-02-26T01:45:32.984Z,0.70
2019-02-26T01:48:01.403Z,0.70
2019-02-26T01:50:30.870Z,0.70
2019-02-26T01:53:01.082Z,0.70
2019-02-26T01:55:29.624Z,0.80
2019-02-26T01:57:58.810Z,0.70
2019-02-26T02:00:28.023Z,0.70
2019-02-26T02:02:56.439Z,0.70
2019-02-26T02:05:26.672Z,0.60
2019-02-26T02:07:55.991Z,0.60
2019-02-26T02:10:24.769Z,0.60
2019-02-26T02:12:55.290Z,0.60
2019-02-26T02:15:23.901Z,0.60
2019-02-26T02:17:52.622Z,0.50
2019-02-26T02:20:21.613Z,0.50
2019-02-26T02:22:50.238Z,0.50
2019-02-26T02:25:18.715Z,0.40
2019-02-26T02:27:49.732Z,0.40
2019-02-26T02:30:23.214Z,0.40
2019-02-26T02:32:53.736Z,0.40
2019-02-26T02:35:19.353Z,0.40
2019-02-26T02:37:48.205Z,0.40
2019-02-26T02:40:16.731Z,0.40
2019-02-26T02:42:46.501Z,0.40
2019-02-26T02:45:20.123Z,0.40
2019-02-26T02:47:45.452Z,0.40
2019-02-26T02:50:15.337Z,0.40
2019-02-26T02:52:44.823Z,0.40
2019-02-26T02:55:16.491Z,0.30
2019-02-26T02:57:43.424Z,0.20
2019-02-26T03:00:16.227Z,0.10
2019-02-26T03:02:46.443Z,0.10
2019-02-26T03:05:15.111Z,0.00
2019-02-26T03:07:45.873Z,-0.10
2019-02-26T03:10:14.935Z,-0.10
2019-02-26T03:12:46.909Z,-0.10
2019-02-26T03:15:15.651Z,-0.10
2019-02-26T03:17:44.334Z,0.00
2019-02-26T03:20:14.001Z,0.00
2019-02-26T03:22:46.151Z,0.00
2019-02-26T03:25:17.343Z,0.00
2019-02-26T03:27:44.869Z,0.00
2019-02-26T03:30:26.092Z,0.00
2019-02-26T03:32:52.173Z,0.00
2019-02-26T03:35:22.234Z,0.00
2019-02-26T03:37:51.502Z,0.00
2019-02-26T03:40:20.807Z,0.00
2019-02-26T03:42:49.870Z,0.00
2019-02-26T03:45:23.877Z,-0.10
2019-02-26T03:47:48.554Z,0.00
2019-02-26T03:50:17.636Z,0.00
2019-02-26T03:52:46.118Z,-0.10
2019-02-26T03:55:18.319Z,-0.10
2019-02-26T03:57:47.340Z,-0.10
2019-02-26T04:00:19.961Z,-0.20
2019-02-26T04:02:49.094Z,-0.20
2019-02-26T04:05:17.898Z,-0.30
2019-02-26T04:07:49.290Z,-0.30
2019-02-26T04:10:16.470Z,-0.30
2019-02-26T04:12:47.866Z,-0.30
2019-02-26T04:15:16.993Z,-0.30
2019-02-26T04:17:45.674Z,-0.30
2019-02-26T04:20:15.625Z,-0.30
2019-02-26T04:22:47.054Z,-0.40
2019-02-26T04:25:27.009Z,-0.40
2019-02-26T04:28:17.952Z,-0.30
2019-02-26T04:30:58.536Z,-0.30
2019-02-26T04:33:46.587Z,-0.40
2019-02-26T04:36:26.836Z,-0.40
2019-02-26T04:39:01.139Z,-0.50
2019-02-26T04:41:33.248Z,-0.50
2019-02-26T04:44:10.770Z,-0.50
2019-02-26T04:46:42.351Z,-0.50
2019-02-26T04:49:10.769Z,-0.60
2019-02-26T04:51:41.933Z,-0.60
2019-02-26T04:54:09.321Z,-0.60
2019-02-26T04:56:40.188Z,-0.70
2019-02-26T04:59:09.778Z,-0.70
2019-02-26T05:01:38.028Z,-0.70
2019-02-26T05:04:06.713Z,-0.60
2019-02-26T05:06:35.147Z,-0.60
2019-02-26T05:09:05.571Z,-0.60
2019-02-26T05:11:38.476Z,-0.60
2019-02-26T05:14:06.704Z,-0.60
2019-02-26T05:16:37.816Z,-0.60
2019-02-26T05:19:05.720Z,-0.60
2019-02-26T05:21:35.521Z,-0.60
2019-02-26T05:24:04.279Z,-0.60
2019-02-26T05:26:32.713Z,-0.60
2019-02-26T05:29:01.116Z,-0.60
2019-02-26T05:31:32.035Z,-0.60
2019-02-26T05:34:00.101Z,-0.70
2019-02-26T05:36:31.075Z,-0.70
2019-02-26T05:39:00.335Z,-0.80
2019-02-26T05:41:28.897Z,-0.80
2019-02-26T05:43:58.257Z,-0.80
2019-02-26T05:46:29.528Z,-0.80
2019-02-26T05:48:57.927Z,-0.90
2019-02-26T05:51:27.449Z,-0.90
2019-02-26T05:53:56.502Z,-1.00
2019-02-26T05:56:24.954Z,-0.90
2019-02-26T05:58:53.710Z,-0.90
2019-02-26T06:01:24.899Z,-0.90
2019-02-26T06:03:52.525Z,-0.90
2019-02-26T06:06:20.946Z,-0.90
2019-02-26T06:08:49.355Z,-0.90
2019-02-26T06:11:17.780Z,-0.90
2019-02-26T06:13:46.186Z,-0.90
2019-02-26T06:16:14.605Z,-0.90
2019-02-26T06:18:48.878Z,-0.90
2019-02-26T06:21:18.987Z,-0.90
2019-02-26T06:23:50.000Z,-0.80
2019-02-26T06:26:18.437Z,-0.70
2019-02-26T06:28:52.870Z,-0.70
2019-02-26T06:31:24.673Z,-0.60
2019-02-26T06:33:52.504Z,-0.50
2019-02-26T06:36:23.340Z,-0.60
2019-02-26T06:38:53.721Z,-0.50
2019-02-26T06:41:21.536Z,-0.50
2019-02-26T06:43:52.158Z,-0.50
2019-02-26T06:46:20.103Z,-0.50
2019-02-26T06:48:48.526Z,-0.40
2019-02-26T06:51:18.982Z,-0.40
2019-02-26T06:53:49.231Z,-0.20
2019-02-26T06:56:17.930Z,-0.10
2019-02-26T06:58:47.480Z,0.00
2019-02-26T07:01:17.002Z,0.10
2019-02-26T07:03:46.548Z,0.20
2019-02-26T07:06:18.499Z,0.40
2019-02-26T07:08:46.685Z,0.60
2019-02-26T07:11:15.208Z,0.80
2019-02-26T07:13:44.750Z,1.00
2019-02-26T07:16:13.854Z,1.20
2019-02-26T07:18:42.268Z,1.30
2019-02-26T07:21:10.670Z,1.50
2019-02-26T07:23:39.999Z,1.60
2019-02-26T07:26:08.791Z,1.90
2019-02-26T07:28:39.179Z,2.10
2019-02-26T07:31:09.751Z,2.30
2019-02-26T07:33:39.561Z,2.50
2019-02-26T07:36:08.135Z,2.60
2019-02-26T07:38:48.516Z,2.70
2019-02-26T07:41:15.130Z,2.60
2019-02-26T07:43:44.624Z,2.60
2019-02-26T07:46:14.610Z,2.60
2019-02-26T07:48:48.494Z,2.60
2019-02-26T07:51:14.255Z,2.70
2019-02-26T07:53:47.982Z,2.90
2019-02-26T07:56:12.808Z,3.10
2019-02-26T07:58:42.961Z,3.40
2019-02-26T08:01:11.370Z,3.60
2019-02-26T08:03:41.542Z,3.90
2019-02-26T08:06:11.756Z,4.20
2019-02-26T08:08:41.985Z,4.40
2019-02-26T08:11:10.184Z,4.50
2019-02-26T08:13:38.616Z,4.80
2019-02-26T08:16:07.005Z,5.10
2019-02-26T08:18:35.416Z,5.10
2019-02-26T08:21:05.049Z,5.10
2019-02-26T08:23:33.677Z,5.10
2019-02-26T08:26:02.308Z,5.00
2019-02-26T08:28:30.914Z,5.10
2019-02-26T08:30:59.658Z,5.30
2019-02-26T08:33:29.044Z,5.50
2019-02-26T08:35:57.451Z,5.60
2019-02-26T08:38:29.390Z,5.90
2019-02-26T08:40:56.260Z,6.10
2019-02-26T08:43:24.658Z,6.30
2019-02-26T08:45:53.061Z,6.60
2019-02-26T08:48:22.329Z,6.70
2019-02-26T08:50:51.615Z,6.90
2019-02-26T08:53:21.794Z,7.20
2019-02-26T08:55:51.528Z,7.50
2019-02-26T08:58:20.622Z,7.70
2019-02-26T09:00:49.054Z,8.00
2019-02-26T09:03:17.966Z,8.40
2019-02-26T09:05:49.286Z,8.70
2019-02-26T09:08:18.167Z,8.90
2019-02-26T09:10:48.583Z,9.20
2019-02-26T09:13:18.736Z,9.40
2019-02-26T09:15:47.243Z,9.60
2019-02-26T09:18:15.652Z,9.90
2019-02-26T09:20:44.074Z,10.50
2019-02-26T09:23:16.310Z,11.00
2019-02-26T09:25:42.629Z,11.40
2019-02-26T09:28:11.029Z,11.50
2019-02-26T09:30:40.855Z,11.50
2019-02-26T09:33:11.125Z,11.50
2019-02-26T09:35:39.726Z,11.50
2019-02-26T09:38:08.129Z,11.70
2019-02-26T09:40:37.161Z,12.00
2019-02-26T09:43:06.268Z,12.40
2019-02-26T09:45:35.076Z,12.50
2019-02-26T09:48:03.486Z,12.80
2019-02-26T09:50:31.910Z,13.10
2019-02-26T09:53:00.320Z,13.30
2019-02-26T09:55:30.946Z,13.60
2019-02-26T09:57:59.355Z,14.00
2019-02-26T10:00:29.546Z,14.30
2019-02-26T10:02:58.434Z,14.70
2019-02-26T10:05:26.912Z,15.10
2019-02-26T10:07:58.007Z,15.50
2019-02-26T10:10:28.139Z,15.80
2019-02-26T10:12:57.378Z,16.00
2019-02-26T10:15:25.735Z,16.00
2019-02-26T10:17:56.217Z,16.30
2019-02-26T10:20:31.403Z,16.50
2019-02-26T10:23:00.651Z,16.70
2019-02-26T10:25:31.779Z,16.80
2019-02-26T10:28:03.151Z,16.80
2019-02-26T10:30:31.390Z,16.80
2019-02-26T10:33:02.753Z,17.00
2019-02-26T10:35:33.281Z,17.10
2019-02-26T10:38:02.949Z,17.10
2019-02-26T10:40:35.247Z,17.00
2019-02-26T10:43:00.595Z,17.40
2019-02-26T10:45:36.066Z,17.90
2019-02-26T10:48:01.965Z,18.10
2019-02-26T10:50:31.975Z,18.30
2019-02-26T10:53:07.353Z,18.40
2019-02-26T10:55:38.346Z,18.40
2019-02-26T10:58:06.784Z,18.70
2019-02-26T11:00:35.284Z,19.10
2019-02-26T11:03:09.175Z,19.40
2019-02-26T11:05:39.868Z,19.30
2019-02-26T11:08:09.525Z,19.30
2019-02-26T11:10:41.422Z,19.30
2019-02-26T11:13:08.443Z,19.60
2019-02-26T11:15:36.862Z,20.00
2019-02-26T11:18:05.932Z,20.30
2019-02-26T11:20:34.577Z,20.40
2019-02-26T11:23:04.158Z,20.60
2019-02-26T11:25:33.145Z,21.10
2019-02-26T11:28:02.436Z,21.50
2019-02-26T11:30:32.290Z,21.90
2019-02-26T11:33:04.773Z,22.00
2019-02-26T11:35:31.413Z,22.30
2019-02-26T11:38:00.225Z,22.30
2019-02-26T11:40:30.691Z,22.40
2019-02-26T11:43:00.342Z,22.50
2019-02-26T11:45:29.381Z,22.80
2019-02-26T11:48:00.416Z,23.10
2019-02-26T11:50:28.487Z,23.30
2019-02-26T11:52:57.791Z,23.60
2019-02-26T11:55:29.301Z,23.70
2019-02-26T11:57:56.885Z,23.90
2019-02-26T12:00:49.635Z,24.10
2019-02-26T12:03:16.415Z,24.20
2019-02-26T12:05:44.843Z,24.30
2019-02-26T12:08:14.870Z,24.30
2019-02-26T12:10:43.369Z,24.40
2019-02-26T12:13:11.797Z,24.40
2019-02-26T12:15:42.706Z,24.40
2019-02-26T12:18:13.083Z,24.30
2019-02-26T12:20:42.983Z,24.20
2019-02-26T12:23:13.329Z,24.10
2019-02-26T12:25:41.096Z,24.10
2019-02-26T12:28:11.570Z,24.10
2019-02-26T12:30:41.501Z,24.00
2019-02-26T12:33:14.790Z,24.30
2019-02-26T12:35:43.852Z,24.50
2019-02-26T12:38:20.642Z,24.20
2019-02-26T12:40:44.630Z,24.10
2019-02-26T12:43:17.745Z,24.30
2019-02-26T12:45:43.018Z,24.50
2019-02-26T12:48:14.265Z,24.60
2019-02-26T12:50:41.566Z,24.50
2019-02-26T12:53:12.766Z,24.50
2019-02-26T12:55:42.334Z,24.40
2019-02-26T12:58:18.671Z,24.60
2019-02-26T13:00:46.656Z,24.70
2019-02-26T13:03:15.783Z,25.00
2019-02-26T13:05:45.584Z,25.20
2019-02-26T13:08:17.164Z,25.00
2019-02-26T13:10:49.592Z,24.90
2019-02-26T13:13:15.904Z,24.90
2019-02-26T13:15:44.299Z,24.90
2019-02-26T13:18:12.718Z,24.70
2019-02-26T13:20:41.199Z,24.70
2019-02-26T13:23:20.030Z,24.80
2019-02-26T13:25:40.000Z,25.00
2019-02-26T13:28:08.699Z,25.00
2019-02-26T13:30:37.186Z,25.10
2019-02-26T13:33:10.677Z,25.20
2019-02-26T13:35:35.998Z,25.50
2019-02-26T13:38:05.347Z,25.70
2019-02-26T13:40:38.493Z,25.70
2019-02-26T13:45:34.615Z,25.90
2019-02-26T13:48:03.390Z,25.80
2019-02-26T13:50:35.673Z,25.90
2019-02-26T13:53:04.662Z,25.80
2019-02-26T13:55:33.061Z,25.90
2019-02-26T13:58:04.750Z,25.90
2019-02-26T14:00:31.721Z,25.70
2019-02-26T14:03:00.117Z,25.80
2019-02-26T14:05:37.700Z,25.90
2019-02-26T14:07:59.233Z,26.20
2019-02-26T14:10:27.646Z,26.20
2019-02-26T14:12:56.288Z,26.20
2019-02-26T14:15:26.968Z,26.10
2019-02-26T14:17:55.383Z,26.20
2019-02-26T14:20:23.851Z,26.20
2019-02-26T14:22:52.261Z,26.50
2019-02-26T14:25:21.613Z,26.80
2019-02-26T14:27:50.046Z,27.00
2019-02-26T14:30:21.991Z,27.20
2019-02-26T14:32:50.860Z,27.20
2019-02-26T14:35:19.553Z,27.50
2019-02-26T14:37:48.386Z,27.80
2019-02-26T14:40:21.257Z,28.20
2019-02-26T14:42:51.401Z,28.40
2019-02-26T14:45:22.550Z,28.70
2019-02-26T14:47:51.137Z,29.20
2019-02-26T14:50:26.258Z,29.60
2019-02-26T14:52:54.786Z,29.90
2019-02-26T14:55:23.366Z,30.20
2019-02-26T14:57:51.777Z,30.50
2019-02-26T15:00:28.370Z,31.10
2019-02-26T15:02:57.202Z,31.40
2019-02-26T15:05:25.679Z,31.40
2019-02-26T15:07:54.103Z,31.60
2019-02-26T15:10:22.496Z,31.90
2019-02-26T15:12:50.989Z,32.30
2019-02-26T15:15:20.628Z,32.30
2019-02-26T15:17:49.034Z,32.50
2019-02-26T15:20:22.094Z,32.30
2019-02-26T15:22:50.514Z,32.40
2019-02-26T15:25:22.954Z,32.50
2019-02-26T15:27:51.420Z,33.10
2019-02-26T15:30:20.975Z,33.40
2019-02-26T15:32:49.627Z,33.30
2019-02-26T15:35:18.663Z,33.30
2019-02-26T15:37:47.613Z,33.30
2019-02-26T15:40:20.720Z,33.10
2019-02-26T15:42:52.298Z,32.70
2019-02-26T15:45:29.025Z,32.70
2019-02-26T15:47:57.969Z,32.70
2019-02-26T15:50:26.379Z,32.80
2019-02-26T15:52:54.788Z,32.90
2019-02-26T15:55:28.937Z,32.70
2019-02-26T15:58:03.064Z,32.60
2019-02-26T16:00:28.574Z,32.10
2019-02-26T16:02:59.310Z,31.90
2019-02-26T16:05:30.563Z,31.90
2019-02-26T16:07:59.003Z,31.90
2019-02-26T16:10:27.421Z,31.80
2019-02-26T16:12:57.467Z,31.60
2019-02-26T16:15:25.878Z,31.50
2019-02-26T16:17:58.150Z,31.00
2019-02-26T16:20:24.442Z,29.50
2019-02-26T16:22:52.844Z,27.50
2019-02-26T16:25:21.283Z,25.90
2019-02-26T16:27:51.713Z,24.60
2019-02-26T16:30:24.543Z,23.60
2019-02-26T16:32:53.574Z,22.90
2019-02-26T16:35:24.825Z,22.40
2019-02-26T16:37:52.482Z,21.90
2019-02-26T16:40:21.055Z,21.00
2019-02-26T16:42:49.453Z,20.40
2019-02-26T16:45:21.219Z,19.80
2019-02-26T16:47:49.699Z,19.20
2019-02-26T16:50:26.858Z,18.70
2019-02-26T16:52:55.270Z,18.30
2019-02-26T16:55:23.763Z,18.10
2019-02-26T16:57:52.162Z,18.00
2019-02-26T17:00:27.784Z,17.70
2019-02-26T17:02:59.698Z,17.40
2019-02-26T17:05:26.323Z,17.10
2019-02-26T17:07:55.011Z,16.90
2019-02-26T17:10:29.281Z,16.60
2019-02-26T17:13:01.845Z,16.30
2019-02-26T17:15:29.823Z,16.10
2019-02-26T17:17:58.220Z,16.00
2019-02-26T17:20:26.630Z,15.80
2019-02-26T17:22:55.027Z,15.60
2019-02-26T17:25:27.803Z,15.40
2019-02-26T17:27:54.953Z,15.20
2019-02-26T17:30:23.974Z,15.10
2019-02-26T17:32:55.469Z,15.10
2019-02-26T17:35:23.979Z,15.00
2019-02-26T17:37:52.396Z,14.90
2019-02-26T17:40:22.168Z,14.80
2019-02-26T17:42:51.260Z,14.70
2019-02-26T17:45:25.986Z,14.50
2019-02-26T17:47:56.454Z,14.40
2019-02-26T17:50:36.448Z,14.30
2019-02-26T17:53:04.946Z,14.10
2019-02-26T17:55:33.386Z,14.00
2019-02-26T17:58:01.799Z,13.70
2019-02-26T18:00:31.858Z,13.50
2019-02-26T18:03:00.280Z,13.40
2019-02-26T18:05:28.816Z,13.30
2019-02-26T18:07:57.242Z,13.20
2019-02-26T18:10:26.901Z,12.90
2019-02-26T18:12:55.387Z,12.70
2019-02-26T18:15:23.961Z,12.60
2019-02-26T18:17:52.690Z,12.50
2019-02-26T18:20:22.349Z,12.50
2019-02-26T18:22:50.753Z,12.50
2019-02-26T18:25:20.958Z,12.40
2019-02-26T18:27:49.370Z,12.30
2019-02-26T18:30:20.417Z,12.20
2019-02-26T18:32:50.539Z,12.10
2019-02-26T18:35:19.330Z,11.90
2019-02-26T18:37:47.871Z,11.70
2019-02-26T18:40:17.638Z,11.60
2019-02-26T18:42:46.692Z,11.50
2019-02-26T18:45:27.874Z,11.40
2019-02-26T18:47:56.682Z,11.30
2019-02-26T18:50:25.888Z,11.10
2019-02-26T18:52:55.664Z,11.00
2019-02-26T18:55:27.954Z,10.90
2019-02-26T18:57:55.374Z,10.80
2019-02-26T19:00:31.403Z,10.70
2019-02-26T19:02:59.888Z,10.60
2019-02-26T19:05:28.332Z,10.50
2019-02-26T19:07:56.926Z,10.40
2019-02-26T19:10:25.591Z,10.30
2019-02-26T19:12:54.118Z,10.20
2019-02-26T19:15:31.506Z,10.00
2019-02-26T19:18:02.697Z,9.90
2019-02-26T19:20:35.468Z,9.80
2019-02-26T19:23:03.992Z,9.60
2019-02-26T19:25:32.447Z,9.50
2019-02-26T19:28:00.885Z,9.40
2019-02-26T19:30:29.592Z,9.30
2019-02-26T19:32:58.061Z,9.20
2019-02-26T19:35:26.487Z,9.00
2019-02-26T19:38:03.235Z,8.90
2019-02-26T19:40:49.646Z,8.70
2019-02-26T19:43:18.088Z,8.60
2019-02-26T19:45:46.587Z,8.50
2019-02-26T19:48:15.013Z,8.50
2019-02-26T19:50:48.706Z,8.40
2019-02-26T19:53:16.921Z,8.30
2019-02-26T19:55:49.729Z,8.30
2019-02-26T19:58:17.735Z,8.20
2019-02-26T20:00:46.624Z,8.10
2019-02-26T20:03:15.120Z,8.10
2019-02-26T20:05:47.159Z,8.00
2019-02-26T20:08:21.755Z,7.90
2019-02-26T20:10:53.359Z,7.90
2019-02-26T20:13:20.397Z,7.90
2019-02-26T20:15:48.835Z,7.80
2019-02-26T20:18:21.048Z,7.80
2019-02-26T20:20:47.953Z,7.70
2019-02-26T20:23:16.384Z,7.60
2019-02-26T20:25:46.777Z,7.50
2019-02-26T20:28:14.984Z,7.50
2019-02-26T20:30:43.472Z,7.40
2019-02-26T20:33:12.410Z,7.40
2019-02-26T20:35:45.052Z,7.30
2019-02-26T20:38:11.046Z,7.30
2019-02-26T20:40:39.770Z,7.20
2019-02-26T20:43:08.296Z,7.20
2019-02-26T20:45:37.840Z,7.10
2019-02-26T20:48:06.286Z,7.00
2019-02-26T20:50:34.822Z,6.90
2019-02-26T20:53:05.679Z,6.80
2019-02-26T20:55:33.842Z,6.80
2019-02-26T20:58:02.579Z,6.60
2019-02-26T21:00:31.055Z,6.50
2019-02-26T21:02:59.509Z,6.40
2019-02-26T21:05:27.958Z,6.30
2019-02-26T21:07:58.777Z,6.20
2019-02-26T21:10:26.556Z,6.00
2019-02-26T21:12:55.006Z,5.90
2019-02-26T21:15:40.022Z,5.90
2019-02-26T21:18:08.486Z,5.70
2019-02-26T21:20:38.814Z,5.70
2019-02-26T21:23:07.118Z,5.60
2019-02-26T21:25:35.566Z,5.50
2019-02-26T21:28:04.030Z,5.50
2019-02-26T21:30:32.466Z,5.40
2019-02-26T21:33:00.903Z,5.40
2019-02-26T21:35:29.336Z,5.30
2019-02-26T21:37:57.775Z,5.30
2019-02-26T21:40:26.229Z,5.30
2019-02-26T21:42:54.666Z,5.20
2019-02-26T21:45:23.127Z,5.20
2019-02-26T21:47:51.877Z,5.10
2019-02-26T21:50:22.853Z,5.10
2019-02-26T21:53:05.803Z,5.10
2019-02-26T21:55:21.198Z,5.00
2019-02-26T21:57:49.645Z,4.90
2019-02-26T22:00:23.800Z,4.80
2019-02-26T22:02:53.019Z,4.70
2019-02-26T22:05:21.622Z,4.60
2019-02-26T22:07:52.374Z,4.60
2019-02-26T22:10:21.442Z,4.50
2019-02-26T22:12:49.887Z,4.50
2019-02-26T22:15:18.374Z,4.50
2019-02-26T22:17:46.813Z,4.40
2019-02-26T22:20:26.921Z,4.40
2019-02-26T22:22:47.728Z,4.30
2019-02-26T22:25:17.472Z,4.30
2019-02-26T22:27:46.484Z,4.20
2019-02-26T22:30:21.384Z,4.20
2019-02-26T22:32:54.861Z,4.20
2019-02-26T22:35:25.574Z,4.10
2019-02-26T22:37:53.467Z,4.10
2019-02-26T22:40:22.827Z,4.00
2019-02-26T22:42:51.530Z,4.00
2019-02-26T22:45:22.142Z,4.00
2019-02-26T22:47:50.167Z,3.90
2019-02-26T22:50:18.642Z,3.90
2019-02-26T22:52:47.470Z,3.80
2019-02-26T22:55:17.608Z,3.80
2019-02-26T22:57:46.365Z,3.70
2019-02-26T23:00:51.190Z,3.70
2019-02-26T23:03:19.750Z,3.60
2019-02-26T23:05:48.273Z,3.60
2019-02-26T23:08:17.267Z,3.50
2019-02-26T23:10:46.328Z,3.50
2019-02-26T23:13:16.713Z,3.40
2019-02-26T23:15:46.067Z,3.40
2019-02-26T23:18:16.180Z,3.40
2019-02-26T23:20:44.773Z,3.30
2019-02-26T23:23:13.266Z,3.30
2019-02-26T23:25:42.669Z,3.30
2019-02-26T23:28:11.347Z,3.30
2019-02-26T23:30:41.141Z,3.20
2019-02-26T23:33:09.644Z,3.20
2019-02-26T23:35:38.659Z,3.10
2019-02-26T23:38:08.527Z,3.00
2019-02-26T23:40:37.750Z,3.00
2019-02-26T23:43:06.300Z,3.00
2019-02-26T23:45:34.741Z,2.90
2019-02-26T23:48:07.674Z,2.90
2019-02-26T23:50:33.376Z,2.80
2019-02-26T23:53:01.821Z,2.80
2019-02-26T23:55:30.268Z,2.80
2019-02-26T23:57:58.723Z,2.80
